Time;durP1;ratioP1;P1;durP2;ratioP2;P2;SDS_P1;SDS_P2;PMS_P1;PMS_P2;Temp;Humidity;BMP_temperature;BMP_pressure;BME280_temperature;BME280_humidity;BME280_pressure;Samples;Min_cycle;Max_cycle;Signal;HPM_P1;HPM_P2
2023/09/24 00:00:58;;;;;;;2.03;1.50;;;;;;;;;;5128629;27;41909;-69
2023/09/24 00:03:26;;;;;;;1.65;1.55;;;;;;;;;;5128145;27;42581;-69
2023/09/24 00:05:54;;;;;;;2.58;1.48;;;;;;;;;;5128657;27;43167;-69
2023/09/24 00:08:22;;;;;;;2.03;1.65;;;;;;;;;;5128210;27;41211;-69
2023/09/24 00:10:54;;;;;;;2.75;1.65;;;;;;;;;;5126139;27;41612;-69
2023/09/24 00:13:22;;;;;;;1.77;1.38;;;;;;;;;;5121940;27;41762;-69
2023/09/24 00:15:52;;;;;;;1.52;1.25;;;;;;;;;;5128160;27;42098;-69
2023/09/24 00:18:19;;;;;;;2.03;1.30;;;;;;;;;;5127840;27;41278;-69
2023/09/24 00:20:48;;;;;;;2.05;1.58;;;;;;;;;;5127806;27;42557;-69
2023/09/24 00:23:16;;;;;;;2.22;1.30;;;;;;;;;;5128523;27;41995;-69
2023/09/24 00:25:44;;;;;;;1.60;1.30;;;;;;;;;;5127158;27;42379;-69
2023/09/24 00:28:12;;;;;;;1.50;1.35;;;;;;;;;;5128793;27;41463;-69
2023/09/24 00:30:42;;;;;;;1.38;1.17;;;;;;;;;;5117596;27;41362;-69
2023/09/24 00:33:12;;;;;;;1.58;1.17;;;;;;;;;;5111950;27;41872;-69
2023/09/24 00:35:40;;;;;;;2.72;1.40;;;;;;;;;;5127834;27;40799;-69
2023/09/24 00:38:08;;;;;;;2.05;1.50;;;;;;;;;;5126828;27;42581;-69
2023/09/24 00:40:36;;;;;;;1.75;1.35;;;;;;;;;;5127197;27;41851;-69
2023/09/24 00:43:05;;;;;;;1.20;1.10;;;;;;;;;;5128274;27;42170;-69
2023/09/24 00:45:35;;;;;;;1.52;1.20;;;;;;;;;;5127232;27;42091;-69
2023/09/24 00:48:04;;;;;;;1.98;1.23;;;;;;;;;;5127458;27;42436;-69
2023/09/24 00:50:35;;;;;;;1.55;1.20;;;;;;;;;;5120111;27;42671;-69
2023/09/24 00:53:03;;;;;;;1.65;1.15;;;;;;;;;;5124819;27;42146;-69
2023/09/24 00:55:32;;;;;;;1.30;1.20;;;;;;;;;;5117054;27;40244;-69
2023/09/24 00:58:00;;;;;;;2.40;1.02;;;;;;;;;;5114239;27;40329;-69
2023/09/24 01:00:30;;;;;;;2.10;1.20;;;;;;;;;;5107530;27;41821;-69
2023/09/24 01:02:58;;;;;;;1.42;1.13;;;;;;;;;;5127889;27;41048;-69
2023/09/24 01:05:28;;;;;;;1.65;1.25;;;;;;;;;;5115559;27;40350;-69
2023/09/24 01:07:57;;;;;;;1.20;1.00;;;;;;;;;;5127351;27;42361;-69
2023/09/24 01:10:26;;;;;;;2.03;0.90;;;;;;;;;;5127608;27;42422;-69
2023/09/24 01:12:55;;;;;;;1.30;1.10;;;;;;;;;;5108048;27;40674;-69
2023/09/24 01:15:25;;;;;;;1.85;1.40;;;;;;;;;;5126938;27;41584;-69
2023/09/24 01:17:53;;;;;;;1.20;1.02;;;;;;;;;;5127699;27;41950;-69
2023/09/24 01:20:22;;;;;;;1.27;1.10;;;;;;;;;;5115283;27;41368;-69
2023/09/24 01:22:52;;;;;;;1.70;1.33;;;;;;;;;;5110023;27;39727;-69
2023/09/24 01:25:21;;;;;;;1.77;1.45;;;;;;;;;;5127051;27;42876;-69
2023/09/24 01:27:50;;;;;;;1.45;1.08;;;;;;;;;;5126818;27;41898;-69
2023/09/24 01:30:18;;;;;;;1.13;1.02;;;;;;;;;;5127191;27;41416;-69
2023/09/24 01:32:50;;;;;;;1.70;1.20;;;;;;;;;;5108993;27;40624;-69
2023/09/24 01:35:25;;;;;;;1.67;1.10;;;;;;;;;;5097106;27;39923;-69
2023/09/24 01:37:55;;;;;;;2.97;1.10;;;;;;;;;;5124415;27;43225;-69
2023/09/24 01:40:25;;;;;;;1.80;1.40;;;;;;;;;;5120691;27;20273;-69
2023/09/24 01:42:55;;;;;;;2.05;1.17;;;;;;;;;;5126077;27;41085;-69
2023/09/24 01:45:23;;;;;;;1.58;1.20;;;;;;;;;;5112070;27;40056;-69
2023/09/24 01:47:51;;;;;;;2.03;1.00;;;;;;;;;;5126974;27;42028;-69
2023/09/24 01:50:19;;;;;;;1.40;1.08;;;;;;;;;;5111375;27;40468;-69
2023/09/24 01:52:47;;;;;;;1.98;1.42;;;;;;;;;;5127618;27;43127;-69
2023/09/24 01:55:17;;;;;;;1.77;1.30;;;;;;;;;;5130828;27;41325;-69
2023/09/24 01:57:45;;;;;;;1.50;1.20;;;;;;;;;;5123675;27;40207;-69
2023/09/24 02:00:23;;;;;;;1.95;1.20;;;;;;;;;;5111036;27;40670;-69
2023/09/24 02:02:51;;;;;;;1.77;1.10;;;;;;;;;;5127019;27;40821;-69
2023/09/24 02:05:20;;;;;;;1.58;1.20;;;;;;;;;;5130400;27;42688;-69
2023/09/24 02:07:49;;;;;;;1.17;1.00;;;;;;;;;;5120782;27;42183;-69
2023/09/24 02:10:18;;;;;;;2.15;1.40;;;;;;;;;;5111266;27;41174;-69
2023/09/24 02:12:47;;;;;;;1.92;1.33;;;;;;;;;;5129479;27;42800;-69
2023/09/24 02:15:18;;;;;;;1.73;1.30;;;;;;;;;;5116957;27;39658;-69
2023/09/24 02:17:47;;;;;;;1.52;0.95;;;;;;;;;;5126073;27;41967;-69
2023/09/24 02:20:25;;;;;;;1.20;1.10;;;;;;;;;;5130538;27;42338;-69
2023/09/24 02:22:57;;;;;;;1.38;1.27;;;;;;;;;;5129658;27;40736;-69
2023/09/24 02:25:26;;;;;;;2.50;1.38;;;;;;;;;;5110455;27;41062;-69
2023/09/24 02:27:55;;;;;;;1.30;1.20;;;;;;;;;;5096354;27;41095;-69
2023/09/24 02:30:23;;;;;;;1.45;1.00;;;;;;;;;;5111115;27;41091;-68
2023/09/24 02:32:54;;;;;;;1.35;1.25;;;;;;;;;;5129359;27;41716;-69
2023/09/24 02:35:23;;;;;;;1.48;1.38;;;;;;;;;;5119525;27;41101;-69
2023/09/24 02:37:51;;;;;;;1.20;1.10;;;;;;;;;;5110438;27;42910;-69
2023/09/24 02:40:22;;;;;;;1.67;1.38;;;;;;;;;;5110955;27;40434;-69
2023/09/24 02:42:53;;;;;;;1.70;1.13;;;;;;;;;;5130030;27;41033;-69
2023/09/24 02:45:21;;;;;;;1.90;1.38;;;;;;;;;;5119692;27;41306;-69
2023/09/24 02:47:49;;;;;;;1.63;1.35;;;;;;;;;;5129426;27;42028;-69
2023/09/24 02:50:18;;;;;;;1.38;1.00;;;;;;;;;;5122842;27;40668;-69
2023/09/24 02:52:47;;;;;;;2.00;1.55;;;;;;;;;;5118599;27;40230;-69
2023/09/24 02:55:15;;;;;;;1.48;1.13;;;;;;;;;;5129882;27;42374;-69
2023/09/24 02:57:43;;;;;;;1.45;1.35;;;;;;;;;;5129161;27;41896;-70
2023/09/24 03:00:17;;;;;;;2.20;1.40;;;;;;;;;;5129212;27;42248;-69
2023/09/24 03:02:45;;;;;;;1.30;1.20;;;;;;;;;;5125521;27;41340;-69
2023/09/24 03:05:20;;;;;;;1.20;0.93;;;;;;;;;;5129903;27;42310;-69
2023/09/24 03:07:50;;;;;;;3.40;1.55;;;;;;;;;;5113557;27;40559;-69
2023/09/24 03:10:21;;;;;;;1.83;1.48;;;;;;;;;;5114232;27;41113;-69
2023/09/24 03:12:49;;;;;;;1.40;1.30;;;;;;;;;;5123907;27;40787;-69
2023/09/24 03:15:19;;;;;;;2.08;1.75;;;;;;;;;;5126700;27;42731;-69
2023/09/24 03:17:48;;;;;;;2.47;1.55;;;;;;;;;;5110333;27;39811;-69
2023/09/24 03:20:16;;;;;;;1.23;1.13;;;;;;;;;;5096721;27;41386;-69
2023/09/24 03:22:46;;;;;;;1.70;0.98;;;;;;;;;;5128240;27;40930;-70
2023/09/24 03:25:17;;;;;;;1.55;1.10;;;;;;;;;;5116109;27;40337;-69
2023/09/24 03:27:46;;;;;;;1.10;0.90;;;;;;;;;;5117740;27;43206;-69
2023/09/24 03:30:17;;;;;;;1.67;1.20;;;;;;;;;;5115989;27;40107;-69
2023/09/24 03:32:47;;;;;;;1.58;1.15;;;;;;;;;;5129099;27;42285;-69
2023/09/24 03:35:19;;;;;;;1.60;1.35;;;;;;;;;;5116478;27;41315;-69
2023/09/24 03:37:47;;;;;;;2.58;1.40;;;;;;;;;;5126304;27;41204;-69
2023/09/24 03:40:16;;;;;;;2.50;1.25;;;;;;;;;;5129949;27;42776;-69
2023/09/24 03:42:44;;;;;;;1.88;1.20;;;;;;;;;;5112822;27;41274;-69
2023/09/24 03:45:13;;;;;;;1.40;1.17;;;;;;;;;;5112395;27;40726;-69
2023/09/24 03:47:41;;;;;;;1.73;1.15;;;;;;;;;;5122141;27;40977;-69
2023/09/24 03:50:13;;;;;;;1.40;1.30;;;;;;;;;;5128369;27;42355;-69
2023/09/24 03:52:41;;;;;;;1.50;1.25;;;;;;;;;;5125200;27;41316;-69
2023/09/24 03:55:09;;;;;;;2.90;1.23;;;;;;;;;;5128841;27;42556;-70
2023/09/24 03:57:38;;;;;;;1.27;1.10;;;;;;;;;;5109561;27;41221;-69
2023/09/24 04:00:10;;;;;;;1.52;1.30;;;;;;;;;;5129526;27;41487;-69
2023/09/24 04:02:43;;;;;;;1.30;1.02;;;;;;;;;;5111493;27;40954;-69
2023/09/24 04:05:14;;;;;;;2.95;1.50;;;;;;;;;;5113067;27;41479;-70
2023/09/24 04:07:43;;;;;;;2.00;1.42;;;;;;;;;;5127685;27;42333;-69
2023/09/24 04:10:14;;;;;;;2.05;0.90;;;;;;;;;;5115139;27;40427;-69
2023/09/24 04:12:43;;;;;;;1.92;1.48;;;;;;;;;;5127733;27;41893;-69
2023/09/24 04:15:11;;;;;;;1.58;1.33;;;;;;;;;;5128538;27;43124;-69
2023/09/24 04:17:39;;;;;;;1.60;1.27;;;;;;;;;;5126568;27;41343;-69
2023/09/24 04:20:10;;;;;;;2.47;1.73;;;;;;;;;;5128646;27;41224;-69
2023/09/24 04:22:40;;;;;;;1.98;1.75;;;;;;;;;;5124247;27;43154;-70
2023/09/24 04:25:08;;;;;;;1.92;1.60;;;;;;;;;;5127989;27;41564;-69
2023/09/24 04:27:38;;;;;;;1.35;1.25;;;;;;;;;;5127684;27;41654;-69
2023/09/24 04:30:08;;;;;;;2.30;1.40;;;;;;;;;;5127715;27;41456;-69
2023/09/24 04:32:36;;;;;;;1.83;1.67;;;;;;;;;;5127306;27;41296;-69
2023/09/24 04:35:05;;;;;;;1.50;1.33;;;;;;;;;;5109622;27;41063;-69
2023/09/24 04:37:33;;;;;;;1.65;1.40;;;;;;;;;;5124998;27;40837;-69
2023/09/24 04:40:05;;;;;;;1.23;1.13;;;;;;;;;;5123120;27;41930;-69
2023/09/24 04:42:34;;;;;;;1.95;1.48;;;;;;;;;;5124505;27;41994;-69
2023/09/24 04:45:03;;;;;;;1.25;1.15;;;;;;;;;;5126739;27;42310;-69
2023/09/24 04:47:31;;;;;;;1.42;1.20;;;;;;;;;;5127688;27;41935;-69
2023/09/24 04:49:59;;;;;;;1.35;1.17;;;;;;;;;;5127917;27;42124;-69
2023/09/24 04:52:27;;;;;;;1.70;1.48;;;;;;;;;;5126811;27;43123;-69
2023/09/24 04:54:55;;;;;;;2.70;1.75;;;;;;;;;;5128278;27;41625;-69
2023/09/24 04:57:25;;;;;;;1.58;1.10;;;;;;;;;;5127966;27;42048;-69
2023/09/24 04:59:53;;;;;;;1.33;1.10;;;;;;;;;;5127889;27;41988;-69
2023/09/24 05:02:23;;;;;;;2.75;1.08;;;;;;;;;;5128267;27;41629;-69
2023/09/24 05:04:51;;;;;;;1.75;1.20;;;;;;;;;;5127853;27;41887;-69
2023/09/24 05:07:19;;;;;;;1.88;1.38;;;;;;;;;;5109019;27;40474;-69
2023/09/24 05:09:47;;;;;;;1.98;1.00;;;;;;;;;;5127190;27;42888;-69
2023/09/24 05:12:15;;;;;;;1.60;1.25;;;;;;;;;;5127952;27;41547;-69
2023/09/24 05:14:45;;;;;;;1.23;1.02;;;;;;;;;;5127437;27;43275;-69
2023/09/24 05:17:13;;;;;;;1.63;1.35;;;;;;;;;;5128209;27;41693;-69
2023/09/24 05:19:41;;;;;;;1.30;0.90;;;;;;;;;;5126863;27;41605;-69
2023/09/24 05:22:09;;;;;;;1.50;1.25;;;;;;;;;;5128220;27;42776;-69
2023/09/24 05:24:37;;;;;;;1.90;1.40;;;;;;;;;;5121487;27;40573;-69
2023/09/24 05:27:05;;;;;;;1.40;1.20;;;;;;;;;;5131478;27;42460;-69
2023/09/24 05:29:33;;;;;;;1.40;1.20;;;;;;;;;;5131085;27;42194;-69
2023/09/24 05:32:02;;;;;;;1.58;1.35;;;;;;;;;;5131800;27;42358;-69
2023/09/24 05:34:30;;;;;;;1.52;1.33;;;;;;;;;;5129685;27;41742;-69
2023/09/24 05:36:58;;;;;;;1.58;1.23;;;;;;;;;;5131947;27;40847;-69
2023/09/24 05:39:26;;;;;;;1.20;1.02;;;;;;;;;;5130762;27;41065;-69
2023/09/24 05:41:55;;;;;;;1.52;1.42;;;;;;;;;;5130812;27;42328;-69
2023/09/24 05:44:24;;;;;;;1.15;0.98;;;;;;;;;;5130631;27;41460;-69
2023/09/24 05:46:52;;;;;;;1.77;1.67;;;;;;;;;;5131034;27;41573;-69
2023/09/24 05:49:22;;;;;;;1.63;1.48;;;;;;;;;;5130008;27;42016;-69
2023/09/24 05:51:50;;;;;;;2.47;1.65;;;;;;;;;;5130975;27;42211;-69
2023/09/24 05:54:18;;;;;;;2.10;1.55;;;;;;;;;;5130923;27;41985;-69
2023/09/24 05:56:45;;;;;;;1.98;1.27;;;;;;;;;;5125336;27;42253;-69
2023/09/24 05:59:14;;;;;;;1.90;1.30;;;;;;;;;;5131355;27;42666;-69
2023/09/24 06:01:42;;;;;;;1.23;1.10;;;;;;;;;;5130212;27;41975;-69
2023/09/24 06:04:10;;;;;;;1.73;0.95;;;;;;;;;;5130588;27;41413;-69
2023/09/24 06:06:40;;;;;;;1.15;1.02;;;;;;;;;;5130638;27;42686;-69
2023/09/24 06:09:09;;;;;;;1.30;1.02;;;;;;;;;;5129785;27;42630;-69
2023/09/24 06:11:37;;;;;;;1.88;1.38;;;;;;;;;;5130048;27;41372;-69
2023/09/24 06:14:08;;;;;;;2.15;1.30;;;;;;;;;;5131261;27;42041;-69
2023/09/24 06:16:36;;;;;;;1.55;1.38;;;;;;;;;;5126480;27;42284;-69
2023/09/24 06:19:04;;;;;;;1.60;1.45;;;;;;;;;;5131046;27;41457;-69
2023/09/24 06:21:32;;;;;;;1.40;1.30;;;;;;;;;;5129225;27;42264;-69
2023/09/24 06:24:02;;;;;;;1.30;0.90;;;;;;;;;;5129258;27;41363;-69
2023/09/24 06:26:30;;;;;;;1.52;1.42;;;;;;;;;;5130293;27;42311;-69
2023/09/24 06:28:59;;;;;;;2.00;1.20;;;;;;;;;;5125180;27;43696;-69
2023/09/24 06:31:38;;;;;;;1.73;1.20;;;;;;;;;;5128371;27;41186;-69
2023/09/24 06:34:07;;;;;;;1.67;1.30;;;;;;;;;;5130875;27;42753;-69
2023/09/24 06:36:35;;;;;;;1.88;1.77;;;;;;;;;;5129403;27;41963;-69
2023/09/24 06:39:08;;;;;;;1.52;1.23;;;;;;;;;;5129262;27;41856;-69
2023/09/24 06:41:36;;;;;;;1.10;1.00;;;;;;;;;;5128942;27;42205;-69
2023/09/24 06:44:04;;;;;;;1.65;0.93;;;;;;;;;;5129595;27;41338;-69
2023/09/24 06:46:32;;;;;;;0.93;0.80;;;;;;;;;;5129889;27;41785;-69
2023/09/24 06:49:00;;;;;;;1.60;1.50;;;;;;;;;;5130175;27;42406;-69
2023/09/24 06:51:28;;;;;;;1.42;1.00;;;;;;;;;;5128680;27;40797;-69
2023/09/24 06:53:56;;;;;;;1.15;0.90;;;;;;;;;;5130313;27;42200;-69
2023/09/24 06:56:26;;;;;;;1.35;0.88;;;;;;;;;;5129454;27;42895;-68
2023/09/24 06:58:53;;;;;;;1.17;1.08;;;;;;;;;;5129583;27;41370;-69
2023/09/24 07:01:22;;;;;;;1.35;1.08;;;;;;;;;;5129210;27;43064;-69
2023/09/24 07:03:51;;;;;;;2.08;1.88;;;;;;;;;;5130031;27;41156;-69
2023/09/24 07:06:21;;;;;;;1.15;1.05;;;;;;;;;;5129532;27;42410;-69
2023/09/24 07:08:50;;;;;;;1.45;1.23;;;;;;;;;;5128918;27;42492;-69
2023/09/24 07:11:21;;;;;;;1.52;1.42;;;;;;;;;;5129806;27;41348;-69
2023/09/24 07:13:51;;;;;;;1.65;1.55;;;;;;;;;;5114224;27;40267;-69
2023/09/24 07:16:20;;;;;;;1.10;0.93;;;;;;;;;;5129582;27;43094;-69
2023/09/24 07:18:49;;;;;;;0.80;0.80;;;;;;;;;;5129992;27;42210;-69
2023/09/24 07:21:18;;;;;;;2.10;1.65;;;;;;;;;;5129097;27;41663;-69
2023/09/24 07:24:02;;;;;;;2.47;1.60;;;;;;;;;;5129361;27;41580;-68
2023/09/24 07:26:30;;;;;;;2.47;1.60;;;;;;;;;;5128157;27;42471;-68
2023/09/24 07:29:00;;;;;;;3.97;2.13;;;;;;;;;;5129328;27;41959;-67
2023/09/24 07:31:29;;;;;;;4.20;2.47;;;;;;;;;;5129622;27;40928;-67
2023/09/24 07:33:58;;;;;;;3.97;2.25;;;;;;;;;;5128875;27;42226;-67
2023/09/24 07:36:26;;;;;;;7.10;2.10;;;;;;;;;;5129421;27;42161;-67
2023/09/24 07:38:59;;;;;;;4.60;2.63;;;;;;;;;;5126071;27;41303;-67
2023/09/24 07:41:27;;;;;;;7.13;2.50;;;;;;;;;;5127820;27;42590;-67
2023/09/24 07:43:55;;;;;;;4.50;2.40;;;;;;;;;;5128500;27;42317;-67
2023/09/24 07:46:25;;;;;;;4.88;2.42;;;;;;;;;;5129280;27;41554;-67
2023/09/24 07:48:52;;;;;;;6.03;1.90;;;;;;;;;;5127589;27;43031;-67
2023/09/24 07:51:22;;;;;;;3.05;2.20;;;;;;;;;;5129133;27;41973;-67
2023/09/24 07:53:50;;;;;;;4.90;2.13;;;;;;;;;;5128873;27;42578;-67
2023/09/24 07:56:19;;;;;;;6.60;2.00;;;;;;;;;;5127107;27;41993;-67
2023/09/24 07:58:47;;;;;;;7.45;2.00;;;;;;;;;;5128420;27;41273;-69
2023/09/24 08:01:15;;;;;;;6.45;2.20;;;;;;;;;;5127622;27;42027;-68
2023/09/24 08:03:45;;;;;;;6.07;2.20;;;;;;;;;;5125240;27;42222;-68
2023/09/24 08:06:14;;;;;;;3.30;2.22;;;;;;;;;;5128470;27;41395;-69
2023/09/24 08:08:42;;;;;;;3.72;1.90;;;;;;;;;;5127701;27;42705;-69
2023/09/24 08:11:12;;;;;;;7.85;2.13;;;;;;;;;;5123877;27;41322;-69
2023/09/24 08:13:40;;;;;;;4.25;1.60;;;;;;;;;;5128014;27;42855;-69
2023/09/24 08:16:08;;;;;;;4.82;2.17;;;;;;;;;;5129324;27;43090;-70
2023/09/24 08:18:37;;;;;;;5.78;1.85;;;;;;;;;;5127969;27;42234;-69
2023/09/24 08:21:06;;;;;;;3.50;2.38;;;;;;;;;;5125315;27;40824;-70
2023/09/24 08:23:35;;;;;;;9.80;1.73;;;;;;;;;;5126310;27;42230;-68
2023/09/24 08:26:03;;;;;;;5.20;2.03;;;;;;;;;;5128193;27;41471;-69
2023/09/24 08:28:31;;;;;;;4.90;1.95;;;;;;;;;;5127046;27;43114;-69
2023/09/24 08:30:59;;;;;;;5.05;1.70;;;;;;;;;;5127800;27;42460;-71
2023/09/24 08:33:27;;;;;;;4.47;1.60;;;;;;;;;;5121240;27;42363;-69
2023/09/24 08:35:55;;;;;;;5.78;1.75;;;;;;;;;;5128288;27;42228;-68
2023/09/24 08:38:24;;;;;;;4.25;1.50;;;;;;;;;;5127249;27;41079;-70
2023/09/24 08:40:53;;;;;;;7.75;1.52;;;;;;;;;;5128966;27;41465;-70
2023/09/24 08:43:21;;;;;;;6.57;2.10;;;;;;;;;;5127334;27;42113;-71
2023/09/24 08:45:49;;;;;;;6.00;1.90;;;;;;;;;;5123271;27;40973;-76
2023/09/24 08:48:17;;;;;;;7.80;1.90;;;;;;;;;;5128786;27;42634;-75
2023/09/24 08:50:45;;;;;;;4.07;2.15;;;;;;;;;;5128191;27;41114;-73
2023/09/24 08:53:15;;;;;;;7.28;2.60;;;;;;;;;;5127781;27;41562;-75
2023/09/24 08:55:45;;;;;;;7.20;1.80;;;;;;;;;;5127622;27;41629;-74
2023/09/24 08:58:13;;;;;;;12.88;2.15;;;;;;;;;;5126399;27;42259;-73
2023/09/24 09:00:43;;;;;;;7.20;2.08;;;;;;;;;;5095019;27;42435;-73
2023/09/24 09:03:11;;;;;;;6.90;3.00;;;;;;;;;;5127836;27;41651;-74
2023/09/24 09:05:39;;;;;;;4.00;1.92;;;;;;;;;;5126838;27;42226;-74
2023/09/24 09:08:07;;;;;;;5.40;1.90;;;;;;;;;;5126901;27;43127;-74
2023/09/24 09:10:36;;;;;;;8.07;2.40;;;;;;;;;;5127511;27;32466;-73
2023/09/24 09:13:09;;;;;;;4.78;1.95;;;;;;;;;;5126800;27;41906;-76
2023/09/24 09:15:38;;;;;;;3.92;1.60;;;;;;;;;;5126508;27;42845;-70
2023/09/24 09:18:06;;;;;;;7.88;1.90;;;;;;;;;;5127803;27;41845;-72
2023/09/24 09:20:41;;;;;;;4.32;1.92;;;;;;;;;;5127063;27;42684;-74
2023/09/24 09:23:12;;;;;;;4.28;1.73;;;;;;;;;;5126705;27;41639;-73
2023/09/24 09:25:46;;;;;;;4.30;1.70;;;;;;;;;;5123076;27;41263;-73
2023/09/24 09:28:20;;;;;;;3.80;1.98;;;;;;;;;;5124038;27;42681;-73
2023/09/24 09:30:58;;;;;;;3.28;1.92;;;;;;;;;;5120367;27;42077;-71
2023/09/24 09:33:26;;;;;;;6.72;1.92;;;;;;;;;;5125706;27;41786;-72
2023/09/24 09:35:55;;;;;;;4.78;1.60;;;;;;;;;;5128102;27;41675;-72
2023/09/24 09:38:22;;;;;;;6.85;1.70;;;;;;;;;;5126659;27;42038;-71
2023/09/24 09:40:53;;;;;;;3.78;1.42;;;;;;;;;;5126907;27;41833;-70
2023/09/24 09:43:25;;;;;;;6.18;1.60;;;;;;;;;;5124510;27;41677;-70
2023/09/24 09:45:54;;;;;;;4.00;1.63;;;;;;;;;;5127451;27;41276;-71
2023/09/24 09:48:29;;;;;;;7.45;1.80;;;;;;;;;;5125261;27;42808;-70
2023/09/24 09:51:06;;;;;;;4.82;1.52;;;;;;;;;;5118913;27;42661;-71
2023/09/24 09:53:35;;;;;;;4.32;1.80;;;;;;;;;;5126027;27;41835;-71
2023/09/24 09:56:04;;;;;;;4.47;1.50;;;;;;;;;;5112326;27;40856;-71
2023/09/24 09:58:37;;;;;;;6.43;1.80;;;;;;;;;;5126677;27;40850;-71
2023/09/24 10:01:05;;;;;;;3.35;1.50;;;;;;;;;;5118320;27;40445;-71
2023/09/24 10:03:33;;;;;;;3.58;1.60;;;;;;;;;;5126078;27;43092;-71
2023/09/24 10:06:02;;;;;;;3.83;1.30;;;;;;;;;;5125502;27;41369;-71
2023/09/24 10:08:40;;;;;;;4.43;1.30;;;;;;;;;;5125710;27;41292;-70
2023/09/24 10:11:08;;;;;;;5.20;1.50;;;;;;;;;;5127353;27;43022;-70
2023/09/24 10:13:47;;;;;;;5.80;1.40;;;;;;;;;;5128978;27;41139;-71
2023/09/24 10:16:31;;;;;;;7.82;1.40;;;;;;;;;;5130618;27;41074;-71
2023/09/24 10:18:59;;;;;;;13.38;1.63;;;;;;;;;;5126692;27;41467;-71
2023/09/24 10:21:28;;;;;;;8.30;1.73;;;;;;;;;;5130916;27;42976;-71
2023/09/24 10:23:56;;;;;;;6.93;1.65;;;;;;;;;;5128789;27;42116;-70
2023/09/24 10:26:46;;;;;;;6.15;1.50;;;;;;;;;;5130513;27;42198;-70
2023/09/24 10:29:15;;;;;;;7.15;1.50;;;;;;;;;;5123273;27;42677;-71
2023/09/24 10:32:02;;;;;;;6.68;1.55;;;;;;;;;;5122722;27;42362;-70
2023/09/24 10:34:41;;;;;;;3.72;1.48;;;;;;;;;;5126601;27;41077;-70
2023/09/24 10:37:09;;;;;;;6.25;1.60;;;;;;;;;;5129298;27;42567;-71
2023/09/24 10:39:50;;;;;;;4.03;1.48;;;;;;;;;;5128944;27;41584;-73
2023/09/24 10:42:17;;;;;;;4.88;1.50;;;;;;;;;;5129190;27;40914;-72
2023/09/24 10:44:47;;;;;;;4.85;2.05;;;;;;;;;;5128111;27;43101;-74
2023/09/24 10:47:24;;;;;;;9.10;1.88;;;;;;;;;;5130272;27;41455;-71
2023/09/24 10:49:55;;;;;;;2.88;1.20;;;;;;;;;;5128653;27;42244;-71
2023/09/24 10:52:23;;;;;;;4.28;1.50;;;;;;;;;;5127968;27;41600;-72
2023/09/24 10:54:51;;;;;;;5.65;1.50;;;;;;;;;;5128410;27;41025;-71
2023/09/24 10:57:23;;;;;;;5.32;1.70;;;;;;;;;;5129115;27;42162;-70
2023/09/24 10:59:52;;;;;;;4.88;1.55;;;;;;;;;;5127657;27;41851;-71
2023/09/24 11:02:20;;;;;;;6.47;1.73;;;;;;;;;;5130200;27;41352;-70
2023/09/24 11:04:49;;;;;;;3.72;1.50;;;;;;;;;;5109916;27;40613;-71
2023/09/24 11:07:17;;;;;;;6.95;1.20;;;;;;;;;;5129327;27;41059;-70
2023/09/24 11:09:48;;;;;;;8.65;1.75;;;;;;;;;;5128756;27;41598;-71
2023/09/24 11:12:16;;;;;;;3.20;1.42;;;;;;;;;;5125908;27;41883;-69
2023/09/24 11:14:54;;;;;;;5.88;1.77;;;;;;;;;;5128931;27;41144;-70
2023/09/24 11:17:41;;;;;;;5.35;2.08;;;;;;;;;;5128287;27;41175;-70
2023/09/24 11:20:10;;;;;;;4.30;1.73;;;;;;;;;;5127851;27;42570;-70
2023/09/24 11:22:37;;;;;;;7.63;1.77;;;;;;;;;;5125886;27;40106;-71
2023/09/24 11:25:06;;;;;;;5.30;1.33;;;;;;;;;;5127784;27;43164;-71
2023/09/24 11:27:34;;;;;;;3.10;1.20;;;;;;;;;;5127590;27;41518;-71
2023/09/24 11:30:03;;;;;;;8.65;1.48;;;;;;;;;;5128665;27;42804;-71
2023/09/24 11:32:31;;;;;;;19.42;1.98;;;;;;;;;;5127193;27;42641;-70
2023/09/24 11:35:06;;;;;;;8.93;1.55;;;;;;;;;;5124708;27;42862;-70
2023/09/24 11:37:50;;;;;;;8.00;1.27;;;;;;;;;;5128110;27;41925;-70
2023/09/24 11:40:25;;;;;;;6.32;1.40;;;;;;;;;;5124382;27;41924;-70
2023/09/24 11:42:53;;;;;;;5.50;1.70;;;;;;;;;;5110273;27;40516;-70
2023/09/24 11:45:39;;;;;;;7.57;1.52;;;;;;;;;;5129098;27;41242;-70
2023/09/24 11:48:10;;;;;;;8.23;1.77;;;;;;;;;;5125145;27;41917;-70
2023/09/24 11:50:39;;;;;;;7.20;1.48;;;;;;;;;;5127610;27;41612;-70
2023/09/24 11:53:07;;;;;;;9.50;1.63;;;;;;;;;;5128592;27;42529;-70
2023/09/24 11:55:35;;;;;;;4.28;1.42;;;;;;;;;;5127511;27;41838;-70
2023/09/24 11:58:03;;;;;;;6.38;1.40;;;;;;;;;;5128807;27;42665;-70
2023/09/24 12:00:31;;;;;;;8.35;1.23;;;;;;;;;;5127602;27;43862;-70
2023/09/24 12:03:01;;;;;;;5.95;1.65;;;;;;;;;;5117257;27;41932;-70
2023/09/24 12:05:29;;;;;;;5.43;1.40;;;;;;;;;;5125290;27;42201;-71
2023/09/24 12:08:01;;;;;;;3.63;1.42;;;;;;;;;;5111025;27;40572;-70
2023/09/24 12:10:29;;;;;;;3.47;1.38;;;;;;;;;;5124546;27;41662;-70
2023/09/24 12:13:01;;;;;;;4.60;1.50;;;;;;;;;;5127856;27;42121;-71
2023/09/24 12:15:30;;;;;;;5.68;1.30;;;;;;;;;;5123964;27;41213;-71
2023/09/24 12:17:59;;;;;;;5.70;1.40;;;;;;;;;;5128730;27;41359;-71
2023/09/24 12:20:28;;;;;;;3.42;1.42;;;;;;;;;;5127699;27;42594;-70
2023/09/24 12:22:58;;;;;;;5.13;1.42;;;;;;;;;;5127188;27;42201;-71
2023/09/24 12:25:26;;;;;;;4.45;1.30;;;;;;;;;;5126378;27;41890;-70
2023/09/24 12:27:54;;;;;;;2.70;1.30;;;;;;;;;;5113388;27;42738;-71
2023/09/24 12:30:23;;;;;;;5.07;1.85;;;;;;;;;;5127248;27;40910;-71
2023/09/24 12:32:51;;;;;;;2.15;1.05;;;;;;;;;;5127938;27;42660;-71
2023/09/24 12:35:19;;;;;;;5.72;1.50;;;;;;;;;;5125486;27;41230;-71
2023/09/24 12:37:48;;;;;;;3.45;1.15;;;;;;;;;;5127205;27;41672;-71
2023/09/24 12:40:16;;;;;;;2.78;1.20;;;;;;;;;;5127406;27;42567;-71
2023/09/24 12:42:44;;;;;;;2.00;1.05;;;;;;;;;;5126742;27;41546;-71
2023/09/24 12:45:12;;;;;;;3.10;1.40;;;;;;;;;;5127345;27;42348;-71
2023/09/24 12:47:41;;;;;;;1.98;1.05;;;;;;;;;;5127696;27;41683;-71
2023/09/24 12:50:09;;;;;;;4.13;1.23;;;;;;;;;;5127173;27;41550;-71
2023/09/24 12:52:38;;;;;;;3.53;1.70;;;;;;;;;;5128115;27;42313;-71
2023/09/24 12:55:08;;;;;;;3.58;1.52;;;;;;;;;;5127937;27;41069;-71
2023/09/24 12:57:36;;;;;;;2.67;1.20;;;;;;;;;;5126530;27;41843;-71
2023/09/24 13:00:10;;;;;;;8.40;1.30;;;;;;;;;;5127855;27;42125;-70
2023/09/24 13:02:40;;;;;;;3.17;1.00;;;;;;;;;;5124164;27;41619;-71
2023/09/24 13:05:09;;;;;;;3.22;1.73;;;;;;;;;;5126578;27;42451;-70
2023/09/24 13:07:38;;;;;;;2.78;1.05;;;;;;;;;;5127465;27;41832;-71
2023/09/24 13:10:08;;;;;;;4.00;1.60;;;;;;;;;;5127534;27;42467;-71
2023/09/24 13:12:36;;;;;;;3.92;1.40;;;;;;;;;;5112288;27;41665;-71
2023/09/24 13:15:04;;;;;;;3.47;1.02;;;;;;;;;;5128353;27;42182;-71
2023/09/24 13:17:32;;;;;;;2.45;1.00;;;;;;;;;;5126677;27;41709;-71
2023/09/24 13:20:01;;;;;;;3.42;1.35;;;;;;;;;;5117847;27;42658;-71
2023/09/24 13:22:29;;;;;;;3.13;1.05;;;;;;;;;;5126907;27;41403;-71
2023/09/24 13:24:57;;;;;;;3.75;1.20;;;;;;;;;;5126052;27;42333;-71
2023/09/24 13:27:26;;;;;;;3.33;1.27;;;;;;;;;;5127665;27;42558;-71
2023/09/24 13:29:54;;;;;;;3.28;1.02;;;;;;;;;;5127696;27;41172;-71
2023/09/24 13:32:23;;;;;;;2.75;1.30;;;;;;;;;;5126411;27;41637;-71
2023/09/24 13:34:51;;;;;;;2.88;1.05;;;;;;;;;;5127837;27;42667;-71
2023/09/24 13:37:19;;;;;;;2.70;1.10;;;;;;;;;;5127336;27;41650;-71
2023/09/24 13:39:48;;;;;;;2.10;1.20;;;;;;;;;;5126576;27;41036;-71
2023/09/24 13:42:15;;;;;;;4.28;1.08;;;;;;;;;;5127321;27;41193;-71
2023/09/24 13:44:45;;;;;;;3.42;1.33;;;;;;;;;;5125827;27;42431;-71
2023/09/24 13:47:15;;;;;;;1.90;0.95;;;;;;;;;;5128315;27;43107;-71
2023/09/24 13:49:43;;;;;;;2.00;0.98;;;;;;;;;;5130236;27;40968;-71
2023/09/24 13:52:11;;;;;;;3.03;0.98;;;;;;;;;;5130803;27;41665;-71
2023/09/24 13:54:39;;;;;;;2.47;0.93;;;;;;;;;;5129713;27;43012;-71
2023/09/24 13:57:08;;;;;;;2.90;1.00;;;;;;;;;;5127024;27;41325;-71
2023/09/24 13:59:36;;;;;;;1.75;0.93;;;;;;;;;;5130217;27;42047;-71
2023/09/24 14:02:06;;;;;;;1.52;0.80;;;;;;;;;;5129961;27;41301;-71
2023/09/24 14:04:34;;;;;;;1.20;0.80;;;;;;;;;;5129169;27;41229;-71
2023/09/24 14:07:02;;;;;;;3.83;1.13;;;;;;;;;;5129830;27;42299;-71
2023/09/24 14:12:21;;;;;;;1.23;0.80;;;;;;;;;;5112986;27;41589;-71
2023/09/24 14:14:49;;;;;;;2.00;0.70;;;;;;;;;;5110985;27;41256;-71
2023/09/24 14:17:19;;;;;;;2.67;0.80;;;;;;;;;;5129728;27;41076;-71
2023/09/24 14:19:47;;;;;;;1.25;0.70;;;;;;;;;;5129483;27;41990;-71
2023/09/24 14:22:15;;;;;;;2.03;1.08;;;;;;;;;;5129717;27;41197;-71
2023/09/24 14:24:43;;;;;;;3.05;1.17;;;;;;;;;;5117999;27;41694;-71
2023/09/24 14:27:11;;;;;;;2.03;0.80;;;;;;;;;;5129214;27;42806;-72
2023/09/24 14:29:39;;;;;;;1.92;0.93;;;;;;;;;;5115254;27;41995;-72
2023/09/24 14:32:09;;;;;;;2.15;1.00;;;;;;;;;;5118463;27;41010;-71
2023/09/24 14:34:38;;;;;;;5.28;1.10;;;;;;;;;;5129509;27;42410;-71
2023/09/24 14:37:06;;;;;;;6.97;1.00;;;;;;;;;;5125063;27;41682;-70
2023/09/24 14:39:34;;;;;;;4.65;0.77;;;;;;;;;;5128910;27;41283;-72
2023/09/24 14:42:02;;;;;;;6.30;1.08;;;;;;;;;;5113337;27;41259;-71
2023/09/24 14:44:35;;;;;;;9.60;1.30;;;;;;;;;;5128282;27;41538;-72
2023/09/24 14:47:03;;;;;;;9.25;1.30;;;;;;;;;;5126086;27;41918;-72
2023/09/24 14:49:32;;;;;;;4.00;0.85;;;;;;;;;;5130600;27;42084;-71
2023/09/24 14:52:01;;;;;;;4.75;1.40;;;;;;;;;;5129770;27;41687;-70
2023/09/24 14:54:29;;;;;;;5.05;0.85;;;;;;;;;;5128896;27;42216;-73
2023/09/24 14:56:58;;;;;;;3.97;1.27;;;;;;;;;;5128237;27;40646;-71
2023/09/24 14:59:26;;;;;;;2.22;0.80;;;;;;;;;;5127801;27;42561;-70